sensor_id;sensor_type;location;lat;lon;timestamp;temperature;humidity
66582;SHT31;53438;48.898;2.308;2023-12-22T00:01:07;11.84;77.60
66582;SHT31;53438;48.898;2.308;2023-12-22T00:03:32;11.88;77.20
66582;SHT31;53438;48.898;2.308;2023-12-22T00:05:58;11.88;77.49
66582;SHT31;53438;48.898;2.308;2023-12-22T00:08:23;11.89;77.14
66582;SHT31;53438;48.898;2.308;2023-12-22T00:10:49;11.86;77.52
66582;SHT31;53438;48.898;2.308;2023-12-22T00:13:14;11.85;77.21
66582;SHT31;53438;48.898;2.308;2023-12-22T00:15:40;11.85;76.89
66582;SHT31;53438;48.898;2.308;2023-12-22T00:18:05;11.92;76.21
66582;SHT31;53438;48.898;2.308;2023-12-22T00:20:31;11.89;75.83
66582;SHT31;53438;48.898;2.308;2023-12-22T00:22:56;11.89;75.48
66582;SHT31;53438;48.898;2.308;2023-12-22T00:25:22;11.88;75.92
66582;SHT31;53438;48.898;2.308;2023-12-22T00:27:47;11.81;76.19
66582;SHT31;53438;48.898;2.308;2023-12-22T00:30:12;11.81;75.58
66582;SHT31;53438;48.898;2.308;2023-12-22T00:32:38;11.81;74.98
66582;SHT31;53438;48.898;2.308;2023-12-22T00:35:04;11.77;75.10
66582;SHT31;53438;48.898;2.308;2023-12-22T00:37:30;11.77;75.39
66582;SHT31;53438;48.898;2.308;2023-12-22T00:39:55;11.74;75.57
66582;SHT31;53438;48.898;2.308;2023-12-22T00:42:20;11.71;75.00
66582;SHT31;53438;48.898;2.308;2023-12-22T00:44:46;11.68;75.31
66582;SHT31;53438;48.898;2.308;2023-12-22T00:47:11;11.64;75.21
66582;SHT31;53438;48.898;2.308;2023-12-22T00:49:37;11.64;74.70
66582;SHT31;53438;48.898;2.308;2023-12-22T00:52:03;11.63;74.69
66582;SHT31;53438;48.898;2.308;2023-12-22T00:54:28;11.63;74.05
66582;SHT31;53438;48.898;2.308;2023-12-22T00:56:55;11.67;73.67
66582;SHT31;53438;48.898;2.308;2023-12-22T00:59:21;11.67;73.57
66582;SHT31;53438;48.898;2.308;2023-12-22T04:00:42;11.68;78.00
66582;SHT31;53438;48.898;2.308;2023-12-22T04:03:07;11.63;78.49
66582;SHT31;53438;48.898;2.308;2023-12-22T04:05:33;11.67;78.52
66582;SHT31;53438;48.898;2.308;2023-12-22T04:07:58;11.67;78.15
66582;SHT31;53438;48.898;2.308;2023-12-22T04:10:23;11.64;78.37
66582;SHT31;53438;48.898;2.308;2023-12-22T04:12:49;11.67;78.55
66582;SHT31;53438;48.898;2.308;2023-12-22T04:15:14;11.65;79.02
66582;SHT31;53438;48.898;2.308;2023-12-22T04:17:39;11.64;79.18
66582;SHT31;53438;48.898;2.308;2023-12-22T04:20:06;11.64;79.81
66582;SHT31;53438;48.898;2.308;2023-12-22T04:22:31;11.60;80.83
66582;SHT31;53438;48.898;2.308;2023-12-22T04:24:57;11.50;83.03
66582;SHT31;53438;48.898;2.308;2023-12-22T04:27:22;11.37;84.61
66582;SHT31;53438;48.898;2.308;2023-12-22T04:29:47;11.33;85.28
66582;SHT31;53438;48.898;2.308;2023-12-22T04:32:13;11.20;86.00
66582;SHT31;53438;48.898;2.308;2023-12-22T04:34:38;11.15;86.86
66582;SHT31;53438;48.898;2.308;2023-12-22T04:37:03;11.00;87.45
66582;SHT31;53438;48.898;2.308;2023-12-22T04:39:29;11.05;88.51
66582;SHT31;53438;48.898;2.308;2023-12-22T04:41:54;10.82;89.34
66582;SHT31;53438;48.898;2.308;2023-12-22T04:44:19;10.86;89.58
66582;SHT31;53438;48.898;2.308;2023-12-22T04:46:45;10.85;89.33
66582;SHT31;53438;48.898;2.308;2023-12-22T04:49:10;10.91;89.66
66582;SHT31;53438;48.898;2.308;2023-12-22T04:51:35;10.93;89.52
66582;SHT31;53438;48.898;2.308;2023-12-22T04:54:00;10.91;89.12
66582;SHT31;53438;48.898;2.308;2023-12-22T04:56:27;10.93;88.93
66582;SHT31;53438;48.898;2.308;2023-12-22T04:58:52;10.93;88.45
66582;SHT31;53438;48.898;2.308;2023-12-22T05:01:18;10.91;88.49
66582;SHT31;53438;48.898;2.308;2023-12-22T05:03:44;10.91;88.20
66582;SHT31;53438;48.898;2.308;2023-12-22T05:06:09;10.93;87.93
66582;SHT31;53438;48.898;2.308;2023-12-22T05:08:35;10.96;87.91
66582;SHT31;53438;48.898;2.308;2023-12-22T05:11:00;10.97;87.71
66582;SHT31;53438;48.898;2.308;2023-12-22T05:13:25;10.97;87.59
66582;SHT31;53438;48.898;2.308;2023-12-22T05:15:51;11.00;87.60
66582;SHT31;53438;48.898;2.308;2023-12-22T05:18:16;10.91;87.71
66582;SHT31;53438;48.898;2.308;2023-12-22T05:20:41;10.95;88.36
66582;SHT31;53438;48.898;2.308;2023-12-22T05:23:07;10.99;88.47
66582;SHT31;53438;48.898;2.308;2023-12-22T05:25:32;10.96;88.26
66582;SHT31;53438;48.898;2.308;2023-12-22T05:27:57;10.93;88.10
66582;SHT31;53438;48.898;2.308;2023-12-22T05:30:23;10.96;88.16
66582;SHT31;53438;48.898;2.308;2023-12-22T05:32:48;10.95;87.78
66582;SHT31;53438;48.898;2.308;2023-12-22T05:35:13;10.96;88.12
66582;SHT31;53438;48.898;2.308;2023-12-22T05:37:39;10.97;87.47
66582;SHT31;53438;48.898;2.308;2023-12-22T05:40:06;10.99;87.17
66582;SHT31;53438;48.898;2.308;2023-12-22T05:42:32;11.02;87.25
66582;SHT31;53438;48.898;2.308;2023-12-22T05:44:57;11.00;87.25
66582;SHT31;53438;48.898;2.308;2023-12-22T05:47:23;11.02;86.88
66582;SHT31;53438;48.898;2.308;2023-12-22T05:49:48;11.03;86.80
66582;SHT31;53438;48.898;2.308;2023-12-22T05:52:14;11.07;86.43
66582;SHT31;53438;48.898;2.308;2023-12-22T05:54:39;11.10;86.16
66582;SHT31;53438;48.898;2.308;2023-12-22T05:57:05;11.10;86.39
66582;SHT31;53438;48.898;2.308;2023-12-22T05:59:32;11.12;86.66
66582;SHT31;53438;48.898;2.308;2023-12-22T06:01:58;11.12;86.13
66582;SHT31;53438;48.898;2.308;2023-12-22T06:04:24;11.13;86.38
66582;SHT31;53438;48.898;2.308;2023-12-22T06:06:50;11.15;86.02
66582;SHT31;53438;48.898;2.308;2023-12-22T06:09:15;11.17;86.43
66582;SHT31;53438;48.898;2.308;2023-12-22T06:11:42;11.13;86.36
66582;SHT31;53438;48.898;2.308;2023-12-22T06:14:07;11.16;86.49
66582;SHT31;53438;48.898;2.308;2023-12-22T06:16:33;11.13;86.66
66582;SHT31;53438;48.898;2.308;2023-12-22T06:18:58;11.15;86.90
66582;SHT31;53438;48.898;2.308;2023-12-22T06:21:23;11.13;87.15
66582;SHT31;53438;48.898;2.308;2023-12-22T06:23:50;11.09;87.53
66582;SHT31;53438;48.898;2.308;2023-12-22T06:26:15;11.10;87.58
66582;SHT31;53438;48.898;2.308;2023-12-22T06:28:40;11.10;87.57
66582;SHT31;53438;48.898;2.308;2023-12-22T06:31:06;11.10;87.56
66582;SHT31;53438;48.898;2.308;2023-12-22T06:33:32;11.05;87.73
66582;SHT31;53438;48.898;2.308;2023-12-22T06:35:57;11.07;87.89
66582;SHT31;53438;48.898;2.308;2023-12-22T06:38:22;11.07;87.71
66582;SHT31;53438;48.898;2.308;2023-12-22T06:40:48;11.05;87.84
66582;SHT31;53438;48.898;2.308;2023-12-22T06:43:13;11.07;87.63
66582;SHT31;53438;48.898;2.308;2023-12-22T06:45:40;11.07;87.88
66582;SHT31;53438;48.898;2.308;2023-12-22T06:48:06;11.09;87.64
66582;SHT31;53438;48.898;2.308;2023-12-22T06:50:31;11.09;87.56
66582;SHT31;53438;48.898;2.308;2023-12-22T06:52:57;11.07;87.54
66582;SHT31;53438;48.898;2.308;2023-12-22T06:55:22;11.07;87.67
66582;SHT31;53438;48.898;2.308;2023-12-22T06:57:48;11.12;87.60
66582;SHT31;53438;48.898;2.308;2023-12-22T07:00:14;11.09;87.42
66582;SHT31;53438;48.898;2.308;2023-12-22T07:02:39;11.09;87.60
66582;SHT31;53438;48.898;2.308;2023-12-22T07:07:48;11.10;87.62
66582;SHT31;53438;48.898;2.308;2023-12-22T07:10:13;11.06;88.64
66582;SHT31;53438;48.898;2.308;2023-12-22T07:12:39;10.93;88.66
66582;SHT31;53438;48.898;2.308;2023-12-22T07:15:05;10.97;89.13
66582;SHT31;53438;48.898;2.308;2023-12-22T07:17:34;10.92;89.72
66582;SHT31;53438;48.898;2.308;2023-12-22T07:19:59;10.89;89.75
66582;SHT31;53438;48.898;2.308;2023-12-22T07:22:28;10.93;89.90
66582;SHT31;53438;48.898;2.308;2023-12-22T07:24:54;10.96;90.09
66582;SHT31;53438;48.898;2.308;2023-12-22T07:27:21;10.95;89.57
66582;SHT31;53438;48.898;2.308;2023-12-22T07:29:47;10.93;89.21
66582;SHT31;53438;48.898;2.308;2023-12-22T07:32:12;10.93;89.14
66582;SHT31;53438;48.898;2.308;2023-12-22T07:34:37;10.96;89.21
66582;SHT31;53438;48.898;2.308;2023-12-22T07:37:03;10.97;89.05
66582;SHT31;53438;48.898;2.308;2023-12-22T07:39:29;11.00;89.09
66582;SHT31;53438;48.898;2.308;2023-12-22T07:41:55;10.99;88.86
66582;SHT31;53438;48.898;2.308;2023-12-22T07:44:20;11.05;88.57
66582;SHT31;53438;48.898;2.308;2023-12-22T07:46:55;11.06;88.09
66582;SHT31;53438;48.898;2.308;2023-12-22T07:49:21;11.10;87.98
66582;SHT31;53438;48.898;2.308;2023-12-22T07:51:46;11.12;87.82
66582;SHT31;53438;48.898;2.308;2023-12-22T07:54:11;11.15;87.55
66582;SHT31;53438;48.898;2.308;2023-12-22T07:56:37;11.15;87.56
66582;SHT31;53438;48.898;2.308;2023-12-22T07:59:03;11.13;87.28
66582;SHT31;53438;48.898;2.308;2023-12-22T08:01:28;11.19;87.65
66582;SHT31;53438;48.898;2.308;2023-12-22T08:03:53;11.17;87.93
66582;SHT31;53438;48.898;2.308;2023-12-22T08:06:19;11.15;88.20
66582;SHT31;53438;48.898;2.308;2023-12-22T08:08:44;11.09;88.43
66582;SHT31;53438;48.898;2.308;2023-12-22T08:11:09;11.09;89.06
66582;SHT31;53438;48.898;2.308;2023-12-22T08:13:38;10.96;89.93
66582;SHT31;53438;48.898;2.308;2023-12-22T08:16:03;10.96;90.29
66582;SHT31;53438;48.898;2.308;2023-12-22T08:18:28;11.00;90.44
66582;SHT31;53438;48.898;2.308;2023-12-22T08:20:54;10.93;90.67
66582;SHT31;53438;48.898;2.308;2023-12-22T08:23:19;10.93;90.86
66582;SHT31;53438;48.898;2.308;2023-12-22T08:25:46;10.95;90.67
66582;SHT31;53438;48.898;2.308;2023-12-22T08:28:11;10.99;90.68
66582;SHT31;53438;48.898;2.308;2023-12-22T08:30:37;11.02;90.29
66582;SHT31;53438;48.898;2.308;2023-12-22T08:33:03;11.00;90.04
66582;SHT31;53438;48.898;2.308;2023-12-22T08:35:28;11.05;89.55
66582;SHT31;53438;48.898;2.308;2023-12-22T08:37:53;11.09;89.57
66582;SHT31;53438;48.898;2.308;2023-12-22T08:40:19;11.09;89.16
66582;SHT31;53438;48.898;2.308;2023-12-22T08:42:50;11.13;89.19
66582;SHT31;53438;48.898;2.308;2023-12-22T08:45:16;11.16;89.17
66582;SHT31;53438;48.898;2.308;2023-12-22T08:47:41;11.23;88.54
66582;SHT31;53438;48.898;2.308;2023-12-22T08:50:06;11.23;87.83
66582;SHT31;53438;48.898;2.308;2023-12-22T08:52:33;11.31;87.48
66582;SHT31;53438;48.898;2.308;2023-12-22T08:54:58;11.33;86.91
66582;SHT31;53438;48.898;2.308;2023-12-22T08:57:24;11.38;86.63
66582;SHT31;53438;48.898;2.308;2023-12-22T08:59:50;11.44;86.50
66582;SHT31;53438;48.898;2.308;2023-12-22T09:02:15;11.45;86.46
66582;SHT31;53438;48.898;2.308;2023-12-22T09:04:40;11.43;86.78
66582;SHT31;53438;48.898;2.308;2023-12-22T09:07:06;11.41;86.43
66582;SHT31;53438;48.898;2.308;2023-12-22T09:09:31;11.44;86.31
66582;SHT31;53438;48.898;2.308;2023-12-22T09:11:57;11.41;86.44
66582;SHT31;53438;48.898;2.308;2023-12-22T09:14:22;11.47;86.47
66582;SHT31;53438;48.898;2.308;2023-12-22T09:16:47;11.51;85.51
66582;SHT31;53438;48.898;2.308;2023-12-22T09:19:13;11.53;85.02
66582;SHT31;53438;48.898;2.308;2023-12-22T09:21:38;11.65;83.35
66582;SHT31;53438;48.898;2.308;2023-12-22T09:24:04;11.70;83.66
66582;SHT31;53438;48.898;2.308;2023-12-22T09:26:30;11.65;83.93
66582;SHT31;53438;48.898;2.308;2023-12-22T09:28:56;11.68;84.14
66582;SHT31;53438;48.898;2.308;2023-12-22T09:31:21;11.67;83.86
66582;SHT31;53438;48.898;2.308;2023-12-22T09:33:47;11.68;83.35
66582;SHT31;53438;48.898;2.308;2023-12-22T09:36:13;11.73;83.74
66582;SHT31;53438;48.898;2.308;2023-12-22T09:38:39;11.68;83.59
66582;SHT31;53438;48.898;2.308;2023-12-22T09:41:04;11.68;84.08
66582;SHT31;53438;48.898;2.308;2023-12-22T09:43:34;11.64;84.63
66582;SHT31;53438;48.898;2.308;2023-12-22T09:46:01;11.63;84.75
66582;SHT31;53438;48.898;2.308;2023-12-22T09:48:28;11.61;84.86
66582;SHT31;53438;48.898;2.308;2023-12-22T09:50:54;11.63;85.36
66582;SHT31;53438;48.898;2.308;2023-12-22T09:53:20;11.63;85.38
66582;SHT31;53438;48.898;2.308;2023-12-22T09:55:46;11.61;85.31
66582;SHT31;53438;48.898;2.308;2023-12-22T09:58:13;11.61;85.12
66582;SHT31;53438;48.898;2.308;2023-12-22T10:00:43;11.61;85.27
66582;SHT31;53438;48.898;2.308;2023-12-22T10:03:11;11.60;85.01
66582;SHT31;53438;48.898;2.308;2023-12-22T10:05:42;11.61;84.92
66582;SHT31;53438;48.898;2.308;2023-12-22T10:08:09;11.64;84.75
66582;SHT31;53438;48.898;2.308;2023-12-22T10:10:38;11.61;84.50
66582;SHT31;53438;48.898;2.308;2023-12-22T10:13:05;11.65;84.05
66582;SHT31;53438;48.898;2.308;2023-12-22T10:15:36;11.68;83.98
66582;SHT31;53438;48.898;2.308;2023-12-22T10:18:06;11.71;84.37
66582;SHT31;53438;48.898;2.308;2023-12-22T10:20:31;11.70;84.01
66582;SHT31;53438;48.898;2.308;2023-12-22T10:22:56;11.70;83.47
66582;SHT31;53438;48.898;2.308;2023-12-22T10:25:27;11.73;83.69
66582;SHT31;53438;48.898;2.308;2023-12-22T10:27:52;11.79;84.05
66582;SHT31;53438;48.898;2.308;2023-12-22T10:30:19;11.74;83.63
66582;SHT31;53438;48.898;2.308;2023-12-22T10:32:45;11.77;83.91
66582;SHT31;53438;48.898;2.308;2023-12-22T10:35:10;11.71;83.36
66582;SHT31;53438;48.898;2.308;2023-12-22T10:37:36;11.75;83.63
66582;SHT31;53438;48.898;2.308;2023-12-22T10:40:06;11.77;83.52
66582;SHT31;53438;48.898;2.308;2023-12-22T10:42:33;11.68;84.11
66582;SHT31;53438;48.898;2.308;2023-12-22T10:44:58;11.68;84.59
66582;SHT31;53438;48.898;2.308;2023-12-22T10:47:24;11.64;85.30
66582;SHT31;53438;48.898;2.308;2023-12-22T10:49:49;11.53;85.65
66582;SHT31;53438;48.898;2.308;2023-12-22T10:52:18;11.37;86.39
66582;SHT31;53438;48.898;2.308;2023-12-22T10:54:44;11.50;87.11
66582;SHT31;53438;48.898;2.308;2023-12-22T10:57:10;11.43;87.25
66582;SHT31;53438;48.898;2.308;2023-12-22T10:59:40;11.38;87.58
66582;SHT31;53438;48.898;2.308;2023-12-22T11:02:08;11.40;88.11
66582;SHT31;53438;48.898;2.308;2023-12-22T11:04:37;11.28;88.33
66582;SHT31;53438;48.898;2.308;2023-12-22T11:07:03;11.30;88.80
66582;SHT31;53438;48.898;2.308;2023-12-22T11:09:31;11.30;88.69
66582;SHT31;53438;48.898;2.308;2023-12-22T11:11:58;11.30;88.95
66582;SHT31;53438;48.898;2.308;2023-12-22T11:14:26;11.27;88.80
66582;SHT31;53438;48.898;2.308;2023-12-22T11:16:53;11.30;88.28
66582;SHT31;53438;48.898;2.308;2023-12-22T11:19:20;11.28;88.30
66582;SHT31;53438;48.898;2.308;2023-12-22T11:21:47;11.27;88.37
66582;SHT31;53438;48.898;2.308;2023-12-22T11:24:13;11.15;88.51
66582;SHT31;53438;48.898;2.308;2023-12-22T11:26:41;11.17;88.98
66582;SHT31;53438;48.898;2.308;2023-12-22T11:29:09;11.07;89.35
66582;SHT31;53438;48.898;2.308;2023-12-22T11:31:36;10.95;89.97
66582;SHT31;53438;48.898;2.308;2023-12-22T11:34:02;10.91;89.99
66582;SHT31;53438;48.898;2.308;2023-12-22T11:36:29;10.99;90.62
66582;SHT31;53438;48.898;2.308;2023-12-22T11:38:55;11.02;90.52
66582;SHT31;53438;48.898;2.308;2023-12-22T11:41:29;11.02;90.01
66582;SHT31;53438;48.898;2.308;2023-12-22T11:43:56;11.03;89.14
66582;SHT31;53438;48.898;2.308;2023-12-22T11:46:22;11.05;88.96
66582;SHT31;53438;48.898;2.308;2023-12-22T11:48:50;11.09;89.14
66582;SHT31;53438;48.898;2.308;2023-12-22T11:51:16;11.16;88.48
66582;SHT31;53438;48.898;2.308;2023-12-22T11:53:42;11.23;87.86
66582;SHT31;53438;48.898;2.308;2023-12-22T11:56:09;11.26;85.33
66582;SHT31;53438;48.898;2.308;2023-12-22T12:01:17;11.36;84.87
66582;SHT31;53438;48.898;2.308;2023-12-22T12:03:50;11.33;84.75
66582;SHT31;53438;48.898;2.308;2023-12-22T12:08:43;11.33;84.96
66582;SHT31;53438;48.898;2.308;2023-12-22T12:11:08;11.40;85.40
66582;SHT31;53438;48.898;2.308;2023-12-22T12:13:34;11.36;84.70
66582;SHT31;53438;48.898;2.308;2023-12-22T12:16:00;11.41;85.00
66582;SHT31;53438;48.898;2.308;2023-12-22T12:18:32;11.33;84.21
66582;SHT31;53438;48.898;2.308;2023-12-22T12:20:59;11.36;84.06
66582;SHT31;53438;48.898;2.308;2023-12-22T12:23:25;11.36;84.06
66582;SHT31;53438;48.898;2.308;2023-12-22T12:25:52;11.44;84.55
66582;SHT31;53438;48.898;2.308;2023-12-22T12:28:28;11.48;83.26
66582;SHT31;53438;48.898;2.308;2023-12-22T12:31:04;11.55;82.05
66582;SHT31;53438;48.898;2.308;2023-12-22T12:33:30;11.55;80.86
66582;SHT31;53438;48.898;2.308;2023-12-22T12:35:57;11.58;80.38
66582;SHT31;53438;48.898;2.308;2023-12-22T12:38:37;11.57;80.41
66582;SHT31;53438;48.898;2.308;2023-12-22T12:41:05;11.58;79.40
66582;SHT31;53438;48.898;2.308;2023-12-22T12:43:31;11.60;79.33
66582;SHT31;53438;48.898;2.308;2023-12-22T12:46:03;11.60;79.79
66582;SHT31;53438;48.898;2.308;2023-12-22T12:53:14;11.54;79.57
66582;SHT31;53438;48.898;2.308;2023-12-22T12:55:40;11.53;79.92
66582;SHT31;53438;48.898;2.308;2023-12-22T12:58:05;11.55;79.15
66582;SHT31;53438;48.898;2.308;2023-12-22T13:00:32;11.58;79.52
66582;SHT31;53438;48.898;2.308;2023-12-22T13:03:02;11.63;79.75
66582;SHT31;53438;48.898;2.308;2023-12-22T13:05:31;11.60;78.54
66582;SHT31;53438;48.898;2.308;2023-12-22T13:08:07;11.63;78.97
66582;SHT31;53438;48.898;2.308;2023-12-22T13:10:34;11.65;79.11
66582;SHT31;53438;48.898;2.308;2023-12-22T13:12:59;11.61;77.67
66582;SHT31;53438;48.898;2.308;2023-12-22T13:15:24;11.67;77.13
66582;SHT31;53438;48.898;2.308;2023-12-22T13:17:50;11.70;77.67
66582;SHT31;53438;48.898;2.308;2023-12-22T13:20:16;11.70;77.68
66582;SHT31;53438;48.898;2.308;2023-12-22T13:22:41;11.75;76.93
66582;SHT31;53438;48.898;2.308;2023-12-22T13:25:07;11.77;76.36
66582;SHT31;53438;48.898;2.308;2023-12-22T13:27:47;11.81;75.96
66582;SHT31;53438;48.898;2.308;2023-12-22T13:30:34;11.79;75.81
66582;SHT31;53438;48.898;2.308;2023-12-22T13:32:58;11.82;76.33
66582;SHT31;53438;48.898;2.308;2023-12-22T13:35:24;11.85;75.58
66582;SHT31;53438;48.898;2.308;2023-12-22T13:37:51;11.88;75.62
66582;SHT31;53438;48.898;2.308;2023-12-22T13:40:16;11.86;75.45
66582;SHT31;53438;48.898;2.308;2023-12-22T13:42:41;11.88;75.12
66582;SHT31;53438;48.898;2.308;2023-12-22T13:45:11;11.92;74.64
66582;SHT31;53438;48.898;2.308;2023-12-22T13:47:43;11.89;75.20
66582;SHT31;53438;48.898;2.308;2023-12-22T13:50:19;11.88;75.56
66582;SHT31;53438;48.898;2.308;2023-12-22T13:52:45;11.91;75.17
66582;SHT31;53438;48.898;2.308;2023-12-22T13:55:14;11.89;74.55
66582;SHT31;53438;48.898;2.308;2023-12-22T13:57:41;11.94;74.95
66582;SHT31;53438;48.898;2.308;2023-12-22T14:02:44;11.91;74.35
66582;SHT31;53438;48.898;2.308;2023-12-22T14:05:09;11.86;73.96
66582;SHT31;53438;48.898;2.308;2023-12-22T14:07:34;11.89;74.64
66582;SHT31;53438;48.898;2.308;2023-12-22T14:10:07;11.91;74.47
66582;SHT31;53438;48.898;2.308;2023-12-22T14:12:32;11.89;73.98
66582;SHT31;53438;48.898;2.308;2023-12-22T14:14:58;11.89;74.53
66582;SHT31;53438;48.898;2.308;2023-12-22T14:17:23;11.88;74.84
66582;SHT31;53438;48.898;2.308;2023-12-22T14:19:49;11.88;74.20
66582;SHT31;53438;48.898;2.308;2023-12-22T14:22:15;11.88;74.23
66582;SHT31;53438;48.898;2.308;2023-12-22T14:24:40;11.85;74.37
66582;SHT31;53438;48.898;2.308;2023-12-22T14:27:05;11.85;74.45
66582;SHT31;53438;48.898;2.308;2023-12-22T14:29:31;11.84;74.60
66582;SHT31;53438;48.898;2.308;2023-12-22T14:31:56;11.82;74.48
66582;SHT31;53438;48.898;2.308;2023-12-22T14:34:21;11.82;74.29
66582;SHT31;53438;48.898;2.308;2023-12-22T14:36:47;11.81;74.60
66582;SHT31;53438;48.898;2.308;2023-12-22T14:39:12;11.77;74.86
66582;SHT31;53438;48.898;2.308;2023-12-22T14:41:41;11.71;75.10
66582;SHT31;53438;48.898;2.308;2023-12-22T14:44:08;11.73;75.68
66582;SHT31;53438;48.898;2.308;2023-12-22T14:46:37;11.63;75.22
66582;SHT31;53438;48.898;2.308;2023-12-22T14:49:02;11.67;76.28
66582;SHT31;53438;48.898;2.308;2023-12-22T14:51:27;11.61;75.71
66582;SHT31;53438;48.898;2.308;2023-12-22T14:53:53;11.61;75.92
66582;SHT31;53438;48.898;2.308;2023-12-22T14:56:18;11.61;75.83
66582;SHT31;53438;48.898;2.308;2023-12-22T14:58:43;11.63;76.05
66582;SHT31;53438;48.898;2.308;2023-12-22T15:01:12;11.60;76.13
66582;SHT31;53438;48.898;2.308;2023-12-22T15:03:38;11.58;76.06
66582;SHT31;53438;48.898;2.308;2023-12-22T15:06:04;11.55;76.02
66582;SHT31;53438;48.898;2.308;2023-12-22T15:08:29;11.57;76.78
66582;SHT31;53438;48.898;2.308;2023-12-22T15:10:55;11.60;76.76
66582;SHT31;53438;48.898;2.308;2023-12-22T15:13:21;11.58;76.96
66582;SHT31;53438;48.898;2.308;2023-12-22T15:15:46;11.54;76.98
66582;SHT31;53438;48.898;2.308;2023-12-22T15:18:11;11.48;76.84
66582;SHT31;53438;48.898;2.308;2023-12-22T15:20:37;11.48;77.12
66582;SHT31;53438;48.898;2.308;2023-12-22T15:23:02;11.47;77.17
66582;SHT31;53438;48.898;2.308;2023-12-22T15:25:27;11.44;77.57
66582;SHT31;53438;48.898;2.308;2023-12-22T15:27:53;11.43;77.47
66582;SHT31;53438;48.898;2.308;2023-12-22T15:30:18;11.43;77.63
66582;SHT31;53438;48.898;2.308;2023-12-22T15:32:43;11.37;77.81
66582;SHT31;53438;48.898;2.308;2023-12-22T15:35:09;11.37;77.95
66582;SHT31;53438;48.898;2.308;2023-12-22T15:37:34;11.33;77.69
66582;SHT31;53438;48.898;2.308;2023-12-22T15:39:59;11.30;77.65
66582;SHT31;53438;48.898;2.308;2023-12-22T15:42:25;11.26;77.96
66582;SHT31;53438;48.898;2.308;2023-12-22T15:44:50;11.28;77.70
66582;SHT31;53438;48.898;2.308;2023-12-22T15:47:15;11.19;77.73
66582;SHT31;53438;48.898;2.308;2023-12-22T15:49:41;11.20;78.78
66582;SHT31;53438;48.898;2.308;2023-12-22T15:52:06;11.22;78.94
66582;SHT31;53438;48.898;2.308;2023-12-22T15:54:32;11.24;79.14
66582;SHT31;53438;48.898;2.308;2023-12-22T15:56:58;11.15;79.49
66582;SHT31;53438;48.898;2.308;2023-12-22T15:59:24;11.15;79.64
66582;SHT31;53438;48.898;2.308;2023-12-22T16:01:51;11.09;79.90
66582;SHT31;53438;48.898;2.308;2023-12-22T16:04:16;11.00;80.57
66582;SHT31;53438;48.898;2.308;2023-12-22T16:06:42;10.95;81.28
66582;SHT31;53438;48.898;2.308;2023-12-22T16:09:07;10.82;82.25
66582;SHT31;53438;48.898;2.308;2023-12-22T16:11:32;10.64;83.65
66582;SHT31;53438;48.898;2.308;2023-12-22T16:13:58;10.65;83.21
66582;SHT31;53438;48.898;2.308;2023-12-22T16:16:23;10.69;83.05
66582;SHT31;53438;48.898;2.308;2023-12-22T16:18:48;10.79;82.88
66582;SHT31;53438;48.898;2.308;2023-12-22T16:21:14;10.79;82.37
66582;SHT31;53438;48.898;2.308;2023-12-22T16:23:39;10.77;82.41
66582;SHT31;53438;48.898;2.308;2023-12-22T16:26:05;10.77;81.82
66582;SHT31;53438;48.898;2.308;2023-12-22T16:28:32;10.79;82.29
66582;SHT31;53438;48.898;2.308;2023-12-22T16:30:58;10.65;82.04
66582;SHT31;53438;48.898;2.308;2023-12-22T16:33:24;10.75;82.22
66582;SHT31;53438;48.898;2.308;2023-12-22T16:35:49;10.73;81.43
66582;SHT31;53438;48.898;2.308;2023-12-22T16:38:15;10.79;81.78
66582;SHT31;53438;48.898;2.308;2023-12-22T16:40:40;10.79;81.10
66582;SHT31;53438;48.898;2.308;2023-12-22T16:43:07;10.71;80.68
66582;SHT31;53438;48.898;2.308;2023-12-22T16:45:32;10.76;80.67
66582;SHT31;53438;48.898;2.308;2023-12-22T16:47:57;10.80;80.89
66582;SHT31;53438;48.898;2.308;2023-12-22T16:50:24;10.82;80.12
66582;SHT31;53438;48.898;2.308;2023-12-22T16:52:50;10.83;80.14
66582;SHT31;53438;48.898;2.308;2023-12-22T16:55:15;10.86;79.74
66582;SHT31;53438;48.898;2.308;2023-12-22T16:57:43;10.88;79.65
66582;SHT31;53438;48.898;2.308;2023-12-22T17:00:09;10.89;79.54
66582;SHT31;53438;48.898;2.308;2023-12-22T17:02:35;10.86;79.34
66582;SHT31;53438;48.898;2.308;2023-12-22T17:05:01;10.82;79.43
66582;SHT31;53438;48.898;2.308;2023-12-22T17:07:27;10.83;79.60
66582;SHT31;53438;48.898;2.308;2023-12-22T17:09:52;10.79;79.87
66582;SHT31;53438;48.898;2.308;2023-12-22T17:12:18;10.82;80.63
66582;SHT31;53438;48.898;2.308;2023-12-22T17:14:43;10.65;81.03
66582;SHT31;53438;48.898;2.308;2023-12-22T17:17:09;10.73;81.85
66582;SHT31;53438;48.898;2.308;2023-12-22T17:19:34;10.62;81.93
66582;SHT31;53438;48.898;2.308;2023-12-22T17:22:01;10.61;82.68
66582;SHT31;53438;48.898;2.308;2023-12-22T17:24:27;10.52;83.80
66582;SHT31;53438;48.898;2.308;2023-12-22T17:26:52;10.30;84.48
66582;SHT31;53438;48.898;2.308;2023-12-22T17:29:17;10.22;85.40
66582;SHT31;53438;48.898;2.308;2023-12-22T17:31:43;10.27;85.79
66582;SHT31;53438;48.898;2.308;2023-12-22T17:34:08;10.31;85.75
66582;SHT31;53438;48.898;2.308;2023-12-22T17:36:34;10.22;85.70
66582;SHT31;53438;48.898;2.308;2023-12-22T17:38:59;10.27;85.57
66582;SHT31;53438;48.898;2.308;2023-12-22T17:41:25;10.25;85.21
66582;SHT31;53438;48.898;2.308;2023-12-22T17:43:50;10.37;85.60
66582;SHT31;53438;48.898;2.308;2023-12-22T17:46:16;10.24;84.70
66582;SHT31;53438;48.898;2.308;2023-12-22T17:48:42;10.34;84.76
66582;SHT31;53438;48.898;2.308;2023-12-22T17:51:07;10.40;84.73
66582;SHT31;53438;48.898;2.308;2023-12-22T17:53:33;10.38;84.32
66582;SHT31;53438;48.898;2.308;2023-12-22T17:55:59;10.44;84.06
66582;SHT31;53438;48.898;2.308;2023-12-22T17:58:25;10.46;83.92
66582;SHT31;53438;48.898;2.308;2023-12-22T18:00:50;10.46;83.04
66582;SHT31;53438;48.898;2.308;2023-12-22T18:03:16;10.45;83.07
66582;SHT31;53438;48.898;2.308;2023-12-22T18:05:41;10.49;82.86
66582;SHT31;53438;48.898;2.308;2023-12-22T18:08:07;10.54;83.10
66582;SHT31;53438;48.898;2.308;2023-12-22T18:10:32;10.55;82.38
66582;SHT31;53438;48.898;2.308;2023-12-22T18:12:58;10.54;82.49
66582;SHT31;53438;48.898;2.308;2023-12-22T18:15:23;10.59;82.01
66582;SHT31;53438;48.898;2.308;2023-12-22T18:17:48;10.61;81.64
66582;SHT31;53438;48.898;2.308;2023-12-22T18:20:14;10.65;81.23
66582;SHT31;53438;48.898;2.308;2023-12-22T18:22:39;10.65;81.44
66582;SHT31;53438;48.898;2.308;2023-12-22T18:25:05;10.65;80.87
66582;SHT31;53438;48.898;2.308;2023-12-22T18:27:32;10.71;81.07
66582;SHT31;53438;48.898;2.308;2023-12-22T18:29:58;10.66;80.48
66582;SHT31;53438;48.898;2.308;2023-12-22T18:32:24;10.68;80.49
66582;SHT31;53438;48.898;2.308;2023-12-22T18:34:49;10.66;80.85
66582;SHT31;53438;48.898;2.308;2023-12-22T18:37:15;10.68;80.69